Time;durP1;ratioP1;P1;durP2;ratioP2;P2;SDS_P1;SDS_P2;PMS_P1;PMS_P2;Temp;Humidity;BMP_temperature;BMP_pressure;BME280_temperature;BME280_humidity;BME280_pressure;Samples;Min_cycle;Max_cycle;Signal;HPM_P1;HPM_P2
2022/09/23 00:01:06;;;;;;;7.90;1.50;;;21.70;99.90;;;;;;5060239;28;20463;-74
2022/09/23 00:03:32;;;;;;;5.32;1.30;;;21.60;99.90;;;;;;5056530;28;20037;-74
2022/09/23 00:06:00;;;;;;;5.78;1.50;;;21.50;99.90;;;;;;5055339;28;20049;-75
2022/09/23 00:08:26;;;;;;;6.65;1.80;;;21.60;99.90;;;;;;5059102;28;20029;-75
2022/09/23 00:10:52;;;;;;;7.20;1.77;;;21.60;99.90;;;;;;5061023;28;20568;-75
2022/09/23 00:13:18;;;;;;;17.42;1.63;;;21.60;99.90;;;;;;5061871;28;20127;-75
2022/09/23 00:15:43;;;;;;;6.97;1.70;;;21.60;99.90;;;;;;5071124;28;20116;-75
2022/09/23 00:18:09;;;;;;;5.97;1.60;;;21.50;99.90;;;;;;5062485;28;20102;-75
2022/09/23 00:20:35;;;;;;;5.53;1.63;;;21.50;99.90;;;;;;5067820;28;20392;-75
2022/09/23 00:23:01;;;;;;;6.07;1.38;;;21.50;99.90;;;;;;5076746;28;20037;-75
2022/09/23 00:25:28;;;;;;;8.18;1.40;;;21.40;99.90;;;;;;5045802;28;20072;-74
2022/09/23 00:27:55;;;;;;;11.77;2.05;;;21.30;99.90;;;;;;5041296;28;20528;-75
2022/09/23 00:30:22;;;;;;;5.10;1.70;;;21.20;99.90;;;;;;5045064;28;20124;-74
2022/09/23 00:32:48;;;;;;;5.95;1.35;;;21.20;99.90;;;;;;5046265;28;20366;-74
2022/09/23 00:35:14;;;;;;;6.68;1.45;;;21.20;99.90;;;;;;5034897;28;20026;-74
2022/09/23 00:37:40;;;;;;;7.65;1.52;;;21.10;99.90;;;;;;5056415;28;20058;-74
2022/09/23 00:40:07;;;;;;;6.32;1.35;;;21.00;99.90;;;;;;5057303;28;20044;-75
2022/09/23 00:42:33;;;;;;;7.63;1.65;;;21.00;99.90;;;;;;5057943;28;20480;-75
2022/09/23 00:45:01;;;;;;;7.28;1.58;;;21.00;99.90;;;;;;5079108;28;20063;-74
2022/09/23 00:47:52;;;;;;;6.05;1.35;;;21.00;99.90;;;;;;5056086;28;20052;-74
2022/09/23 00:50:44;;;;;;;6.20;1.33;;;20.90;99.90;;;;;;5060653;28;20144;-75
2022/09/23 00:53:12;;;;;;;7.85;1.58;;;20.90;99.90;;;;;;5056481;28;20029;-75
2022/09/23 00:55:45;;;;;;;6.30;1.20;;;20.90;99.90;;;;;;5078684;28;20557;-75
2022/09/23 00:58:13;;;;;;;;;;;20.80;99.90;;;;;;5059097;28;20123;-75
2022/09/23 01:00:40;;;;;;;5.55;1.30;;;20.80;99.90;;;;;;5062221;28;20416;-75
2022/09/23 01:03:07;;;;;;;7.57;1.40;;;20.70;99.90;;;;;;5059898;28;20740;-75
2022/09/23 01:05:33;;;;;;;7.57;1.40;;;20.70;99.90;;;;;;5071907;28;20033;-75
2022/09/23 01:08:00;;;;;;;;;;;20.70;99.90;;;;;;5058145;28;20501;-75
2022/09/23 01:10:34;;;;;;;8.35;1.95;;;20.70;99.90;;;;;;5061187;28;20003;-75
2022/09/23 01:13:42;;;;;;;6.35;1.60;;;20.70;99.90;;;;;;5056185;28;20036;-75
2022/09/23 01:16:39;;;;;;;5.50;1.60;;;20.70;99.90;;;;;;5054034;28;20035;-74
2022/09/23 01:19:39;;;;;;;7.35;1.80;;;20.70;99.90;;;;;;5061091;28;20407;-75
2022/09/23 01:22:13;;;;;;;11.05;2.05;;;20.60;99.90;;;;;;5053289;28;20040;-74
2022/09/23 01:25:16;;;;;;;11.20;1.98;;;20.60;99.90;;;;;;5058140;28;20894;-76
2022/09/23 01:27:59;;;;;;;10.82;1.85;;;20.50;99.90;;;;;;5052071;28;20041;-74
2022/09/23 01:30:42;;;;;;;6.05;1.42;;;20.50;99.90;;;;;;5044328;28;20037;-74
2022/09/23 01:33:17;;;;;;;6.75;1.40;;;20.60;99.90;;;;;;5053714;28;20044;-75
2022/09/23 01:36:37;;;;;;;7.60;1.40;;;20.60;99.90;;;;;;5045262;28;20122;-75
2022/09/23 01:39:10;;;;;;;4.75;1.17;;;20.60;99.90;;;;;;5053834;28;20037;-75
2022/09/23 01:42:02;;;;;;;6.05;1.50;;;20.60;99.90;;;;;;5062205;27;20037;-75
2022/09/23 01:44:50;;;;;;;7.72;1.67;;;20.50;99.90;;;;;;5035726;28;20079;-75
2022/09/23 01:47:29;;;;;;;10.18;1.83;;;20.50;99.90;;;;;;5072382;28;20924;-75
2022/09/23 01:50:55;;;;;;;7.50;1.70;;;20.40;99.90;;;;;;5071139;28;20043;-75
2022/09/23 01:53:09;;;;;;;9.13;1.60;;;20.40;99.90;;;;;;5055696;28;20198;-75
2022/09/23 01:55:42;;;;;;;5.60;1.38;;;20.50;99.90;;;;;;5057558;28;20120;-74
2022/09/23 01:58:14;;;;;;;8.75;2.25;;;20.40;99.90;;;;;;5070841;28;20029;-75
2022/09/23 02:00:48;;;;;;;6.80;1.45;;;20.40;99.90;;;;;;5076364;28;20082;-74
2022/09/23 02:03:19;;;;;;;6.90;1.58;;;20.40;99.90;;;;;;5060590;28;20041;-73
2022/09/23 02:05:49;;;;;;;6.88;1.95;;;20.40;99.90;;;;;;5059712;28;20052;-76
2022/09/23 02:08:34;;;;;;;5.00;0.90;;;20.40;99.90;;;;;;5059171;28;20033;-74
2022/09/23 02:11:07;;;;;;;7.25;1.77;;;20.50;99.90;;;;;;5048682;28;20866;-75
2022/09/23 02:13:47;;;;;;;7.40;1.13;;;20.40;99.90;;;;;;5049854;28;20025;-74
2022/09/23 02:16:32;;;;;;;4.93;1.02;;;20.40;99.90;;;;;;5077350;28;20036;-75
2022/09/23 02:19:08;;;;;;;9.57;1.40;;;20.30;99.90;;;;;;5058747;28;20064;-75
2022/09/23 02:21:41;;;;;;;8.88;1.52;;;20.30;99.90;;;;;;5060736;28;20097;-76
2022/09/23 02:24:26;;;;;;;6.57;1.30;;;20.30;99.90;;;;;;5065039;28;20041;-75
2022/09/23 02:27:34;;;;;;;7.22;1.27;;;20.30;99.90;;;;;;5058864;28;20099;-75
2022/09/23 02:29:59;;;;;;;6.07;1.30;;;20.30;99.90;;;;;;5062080;28;20094;-75
2022/09/23 02:32:35;;;;;;;7.65;1.73;;;20.20;99.90;;;;;;5058031;28;20045;-74
2022/09/23 02:35:07;;;;;;;4.57;1.23;;;20.20;99.90;;;;;;5049090;28;20094;-74
2022/09/23 02:38:01;;;;;;;4.53;1.20;;;20.20;99.90;;;;;;5040217;28;20055;-75
2022/09/23 02:40:33;;;;;;;7.53;1.50;;;20.20;99.90;;;;;;5055458;28;20033;-75
2022/09/23 02:43:11;;;;;;;6.97;1.20;;;20.10;99.90;;;;;;5053810;28;20046;-75
2022/09/23 02:45:38;;;;;;;6.05;1.65;;;20.20;99.90;;;;;;5059309;28;20029;-75
2022/09/23 02:48:21;;;;;;;5.10;1.30;;;20.20;99.90;;;;;;5050337;28;20040;-74
2022/09/23 02:50:47;;;;;;;6.82;1.45;;;20.20;99.90;;;;;;5075725;28;20491;-75
2022/09/23 02:53:16;;;;;;;7.43;1.30;;;20.20;99.90;;;;;;5063488;28;20100;-75
2022/09/23 02:55:42;;;;;;;4.97;1.33;;;20.30;99.90;;;;;;5064286;28;20387;-75
2022/09/23 02:58:12;;;;;;;5.95;1.48;;;20.20;99.90;;;;;;5063324;28;20096;-75
2022/09/23 03:01:14;;;;;;;6.82;1.42;;;20.20;99.90;;;;;;5063285;28;20033;-74
2022/09/23 03:03:43;;;;;;;6.25;1.35;;;20.30;99.90;;;;;;5057263;28;20033;-74
2022/09/23 03:06:28;;;;;;;5.95;1.50;;;20.20;99.90;;;;;;5060995;28;20449;-75
2022/09/23 03:09:04;;;;;;;4.72;1.10;;;20.30;99.90;;;;;;5046312;28;20029;-74
2022/09/23 03:11:34;;;;;;;8.93;1.90;;;20.20;99.90;;;;;;5052297;28;20147;-74
2022/09/23 03:14:16;;;;;;;6.60;1.40;;;20.20;99.90;;;;;;5042522;28;20052;-74
2022/09/23 03:17:04;;;;;;;5.72;1.45;;;20.10;99.90;;;;;;5077710;28;20029;-76
2022/09/23 03:19:49;;;;;;;4.45;1.20;;;20.00;99.90;;;;;;5052395;28;20044;-76
2022/09/23 03:22:27;;;;;;;5.93;1.35;;;20.00;99.90;;;;;;5064438;28;20066;-75
2022/09/23 03:24:58;;;;;;;6.45;1.05;;;20.00;99.90;;;;;;5061939;28;20055;-74
2022/09/23 03:27:28;;;;;;;8.50;1.23;;;20.00;99.90;;;;;;5061738;28;20028;-74
2022/09/23 03:29:57;;;;;;;7.20;1.20;;;20.00;99.90;;;;;;5058021;28;20041;-75
2022/09/23 03:32:27;;;;;;;5.57;1.48;;;20.00;99.90;;;;;;5059591;28;20113;-75
2022/09/23 03:34:56;;;;;;;7.50;1.45;;;20.00;99.90;;;;;;5061115;28;20089;-76
2022/09/23 03:37:40;;;;;;;8.10;1.50;;;20.00;99.90;;;;;;5045800;28;20392;-74
2022/09/23 03:40:12;;;;;;;5.53;1.10;;;20.00;99.90;;;;;;5066091;28;20067;-75
2022/09/23 03:42:38;;;;;;;4.85;1.20;;;20.00;99.90;;;;;;5063865;28;20040;-75
2022/09/23 03:45:08;;;;;;;5.28;1.48;;;20.00;99.90;;;;;;5063309;28;20472;-74
2022/09/23 03:47:35;;;;;;;7.22;1.20;;;19.90;99.90;;;;;;5060433;28;20496;-75
2022/09/23 03:50:01;;;;;;;7.07;1.60;;;20.00;99.90;;;;;;5061270;28;20415;-75
2022/09/23 03:52:27;;;;;;;8.65;1.48;;;20.00;99.90;;;;;;5044380;28;20067;-75
2022/09/23 03:54:53;;;;;;;8.77;2.22;;;20.00;99.90;;;;;;5061897;28;20043;-76
2022/09/23 03:57:21;;;;;;;6.35;1.40;;;19.90;99.90;;;;;;5058531;28;20036;-74
2022/09/23 03:59:49;;;;;;;6.15;1.40;;;19.90;99.90;;;;;;5060134;28;20199;-74
2022/09/23 04:02:15;;;;;;;7.25;1.83;;;19.90;99.90;;;;;;5066233;28;20032;-76
2022/09/23 04:04:42;;;;;;;7.93;1.20;;;19.90;99.90;;;;;;5058872;28;20052;-73
2022/09/23 04:07:10;;;;;;;8.13;1.17;;;19.90;99.90;;;;;;5055829;28;20032;-74
2022/09/23 04:09:36;;;;;;;6.32;1.60;;;19.90;99.90;;;;;;5060853;28;20033;-75
2022/09/23 04:12:03;;;;;;;5.07;1.33;;;19.90;99.90;;;;;;5062866;28;20485;-76
2022/09/23 04:14:29;;;;;;;;;;;19.90;99.90;;;;;;5063349;28;20028;-75
2022/09/23 04:16:55;;;;;;;6.50;1.48;;;20.00;99.90;;;;;;5057963;28;20271;-75
2022/09/23 04:19:21;;;;;;;5.80;1.23;;;20.00;99.90;;;;;;5058528;28;20037;-75
2022/09/23 04:21:46;;;;;;;7.03;1.58;;;20.00;99.90;;;;;;5062329;28;20036;-75
2022/09/23 04:24:13;;;;;;;5.15;1.20;;;20.00;99.90;;;;;;5064477;28;20132;-75
2022/09/23 04:26:40;;;;;;;5.07;1.23;;;20.10;99.90;;;;;;5040559;28;20128;-75
2022/09/23 04:29:06;;;;;;;4.75;1.55;;;20.10;99.90;;;;;;5033616;28;20143;-75
2022/09/23 04:31:33;;;;;;;6.32;1.55;;;20.10;99.90;;;;;;5060871;28;20094;-74
2022/09/23 04:33:59;;;;;;;8.13;1.30;;;20.10;99.90;;;;;;5061167;28;20033;-75
2022/09/23 04:36:25;;;;;;;6.30;1.55;;;20.10;99.90;;;;;;5057928;28;20678;-74
2022/09/23 04:38:51;;;;;;;6.65;1.50;;;20.10;99.90;;;;;;5063637;28;20043;-74
2022/09/23 04:41:17;;;;;;;6.68;1.75;;;20.20;99.90;;;;;;5063421;28;20035;-74
2022/09/23 04:43:44;;;;;;;;;;;20.10;99.90;;;;;;5073911;28;20032;-75
2022/09/23 04:46:11;;;;;;;7.07;1.38;;;20.10;99.90;;;;;;5063927;28;19913;-75
2022/09/23 04:48:40;;;;;;;9.32;1.70;;;20.00;99.90;;;;;;5066814;28;20060;-75
2022/09/23 04:51:15;;;;;;;5.90;1.52;;;20.00;99.90;;;;;;5064741;28;20041;-75
2022/09/23 04:53:42;;;;;;;5.78;1.90;;;19.90;99.90;;;;;;5061087;28;20848;-75
2022/09/23 04:56:14;;;;;;;7.88;1.42;;;19.90;99.90;;;;;;5074858;28;20063;-74
2022/09/23 04:58:42;;;;;;;9.48;2.47;;;19.90;99.90;;;;;;5059516;28;20132;-75
2022/09/23 05:01:23;;;;;;;9.07;1.60;;;19.90;99.90;;;;;;5059315;28;20362;-75
2022/09/23 05:03:50;;;;;;;5.82;1.92;;;19.90;99.90;;;;;;5061530;28;20040;-75
2022/09/23 05:06:16;;;;;;;6.85;1.67;;;19.90;99.90;;;;;;5073027;28;20166;-74
2022/09/23 05:08:53;;;;;;;9.48;2.65;;;19.90;99.90;;;;;;5066474;28;20135;-75
2022/09/23 05:11:19;;;;;;;7.90;1.80;;;19.90;99.90;;;;;;5054957;28;20040;-75
2022/09/23 05:13:50;;;;;;;8.68;2.30;;;19.90;99.90;;;;;;5062354;28;20524;-75
2022/09/23 05:16:16;;;;;;;7.80;1.85;;;19.80;99.90;;;;;;5053162;28;20096;-75
2022/09/23 05:18:44;;;;;;;8.95;1.80;;;19.90;99.90;;;;;;5047942;28;20032;-76
2022/09/23 05:21:14;;;;;;;5.80;1.77;;;19.90;99.90;;;;;;5062744;28;20025;-75
2022/09/23 05:23:41;;;;;;;6.25;1.85;;;19.80;99.90;;;;;;5064000;28;20041;-74
2022/09/23 05:26:09;;;;;;;7.13;2.20;;;19.80;99.90;;;;;;5051776;28;20029;-74
2022/09/23 05:28:36;;;;;;;5.38;1.70;;;19.90;99.90;;;;;;5046570;28;20044;-75
2022/09/23 05:31:04;;;;;;;7.00;1.65;;;19.90;99.90;;;;;;5042951;28;20428;-75
2022/09/23 05:33:35;;;;;;;8.07;2.00;;;19.90;99.90;;;;;;5045177;28;20056;-74
2022/09/23 05:36:01;;;;;;;6.88;1.77;;;19.90;99.90;;;;;;5060039;28;20037;-75
2022/09/23 05:38:28;;;;;;;8.77;2.08;;;19.90;99.90;;;;;;5050750;28;20083;-75
2022/09/23 05:41:00;;;;;;;8.65;2.38;;;20.00;99.90;;;;;;5064723;28;20063;-75
2022/09/23 05:43:27;;;;;;;9.15;2.03;;;20.00;99.90;;;;;;5060329;28;20039;-75
2022/09/23 05:46:17;;;;;;;6.63;1.70;;;20.00;99.90;;;;;;5062118;28;20041;-75
2022/09/23 05:48:44;;;;;;;9.60;2.15;;;20.00;99.90;;;;;;5057214;28;20044;-75
2022/09/23 05:51:14;;;;;;;8.07;3.40;;;20.00;99.90;;;;;;5041383;28;20148;-75
2022/09/23 05:53:44;;;;;;;10.27;3.67;;;20.00;99.90;;;;;;5050310;28;20090;-74
2022/09/23 05:56:11;;;;;;;14.55;2.65;;;20.00;99.90;;;;;;5063681;28;20048;-74
2022/09/23 05:58:37;;;;;;;6.13;2.40;;;20.00;99.90;;;;;;5048638;28;21095;-75
2022/09/23 06:01:20;;;;;;;8.75;2.28;;;20.10;99.90;;;;;;5048317;28;20039;-76
2022/09/23 06:03:50;;;;;;;11.10;2.30;;;20.10;99.90;;;;;;5076820;28;20061;-75
2022/09/23 06:06:19;;;;;;;10.73;2.30;;;20.10;99.90;;;;;;5062968;28;20033;-75
2022/09/23 06:08:46;;;;;;;8.77;2.00;;;20.20;99.90;;;;;;5061366;28;20059;-75
2022/09/23 06:11:12;;;;;;;6.88;1.98;;;20.20;99.90;;;;;;5044136;28;20036;-75
2022/09/23 06:13:39;;;;;;;11.07;2.15;;;20.20;99.90;;;;;;5061814;28;20033;-76
2022/09/23 06:16:07;;;;;;;7.45;2.30;;;20.20;99.90;;;;;;5061975;28;20471;-75
2022/09/23 06:18:34;;;;;;;7.55;2.13;;;20.20;99.90;;;;;;5064083;28;20054;-75
2022/09/23 06:21:00;;;;;;;;;;;20.30;99.90;;;;;;5062374;28;20120;-73
2022/09/23 06:23:26;;;;;;;10.18;2.70;;;20.40;99.90;;;;;;5059911;28;19912;-73
2022/09/23 06:25:53;;;;;;;12.98;3.47;;;20.40;99.90;;;;;;5066628;28;21028;-73
2022/09/23 06:28:18;;;;;;;10.48;2.40;;;20.50;99.90;;;;;;5061494;28;20032;-75
2022/09/23 06:30:44;;;;;;;9.00;3.05;;;20.50;99.90;;;;;;5066114;28;20041;-74
2022/09/23 06:33:10;;;;;;;8.93;2.47;;;20.60;99.90;;;;;;5062930;28;20052;-74
2022/09/23 06:35:36;;;;;;;9.68;2.72;;;20.60;99.90;;;;;;5064262;28;20033;-75
2022/09/23 06:38:03;;;;;;;9.27;2.92;;;20.70;99.90;;;;;;5056927;28;20503;-74
2022/09/23 06:40:30;;;;;;;12.65;2.97;;;20.70;99.90;;;;;;5052412;28;20698;-74
2022/09/23 06:43:00;;;;;;;9.63;2.40;;;20.70;99.90;;;;;;5062112;28;20056;-75
2022/09/23 06:45:27;;;;;;;10.70;2.75;;;20.70;99.90;;;;;;5067010;28;20043;-76
2022/09/23 06:47:55;;;;;;;;;;;20.70;99.90;;;;;;5076607;28;20029;-75
2022/09/23 06:50:22;;;;;;;12.00;2.55;;;20.80;99.90;;;;;;5063484;28;19930;-74
2022/09/23 06:52:55;;;;;;;7.40;2.38;;;20.80;99.90;;;;;;5078796;28;20075;-75
2022/09/23 06:55:23;;;;;;;12.32;2.85;;;20.90;99.90;;;;;;5061340;28;20037;-76
2022/09/23 06:57:49;;;;;;;10.02;2.22;;;20.90;99.90;;;;;;5066504;28;20051;-75
2022/09/23 07:00:15;;;;;;;9.10;2.20;;;20.90;99.90;;;;;;5068687;28;20033;-76
2022/09/23 07:02:41;;;;;;;7.30;2.45;;;21.00;99.90;;;;;;5057127;28;20037;-75
2022/09/23 07:05:08;;;;;;;9.73;2.53;;;21.10;99.90;;;;;;5063979;28;20093;-74
2022/09/23 07:07:36;;;;;;;8.65;2.22;;;21.20;99.90;;;;;;5057950;28;20040;-75
2022/09/23 07:10:04;;;;;;;8.98;2.28;;;21.30;99.90;;;;;;5054108;28;20209;-75
2022/09/23 07:12:31;;;;;;;7.75;1.98;;;21.30;99.90;;;;;;5052367;28;20037;-75
2022/09/23 07:14:56;;;;;;;8.65;2.10;;;21.40;99.90;;;;;;5060942;28;20399;-75
2022/09/23 07:17:25;;;;;;;6.78;2.10;;;21.40;99.90;;;;;;5058868;28;20040;-74
2022/09/23 07:19:53;;;;;;;6.97;1.92;;;21.40;99.90;;;;;;5058322;28;20497;-75
2022/09/23 07:22:23;;;;;;;10.27;3.05;;;21.50;99.90;;;;;;5050961;28;20052;-76
2022/09/23 07:24:56;;;;;;;8.73;2.20;;;21.60;99.90;;;;;;5059110;28;20036;-75
2022/09/23 07:27:25;;;;;;;11.57;3.20;;;21.60;99.90;;;;;;5062719;28;20070;-75
2022/09/23 07:29:51;;;;;;;9.15;2.35;;;21.70;99.90;;;;;;5065499;28;20052;-75
2022/09/23 07:32:18;;;;;;;11.77;2.58;;;21.80;99.90;;;;;;5056742;28;20049;-76
2022/09/23 07:34:45;;;;;;;8.50;2.33;;;21.90;99.90;;;;;;5061007;28;20040;-77
2022/09/23 07:37:13;;;;;;;5.75;2.10;;;22.00;99.90;;;;;;5059934;28;20463;-76
2022/09/23 07:39:39;;;;;;;8.05;2.03;;;22.00;99.90;;;;;;5057797;28;20068;-76
2022/09/23 07:42:05;;;;;;;8.45;2.03;;;22.00;99.90;;;;;;5058977;28;20525;-75
2022/09/23 07:44:32;;;;;;;11.45;2.50;;;22.10;99.90;;;;;;5059286;28;20040;-77
2022/09/23 07:46:59;;;;;;;9.88;3.42;;;22.20;99.90;;;;;;5064808;28;20040;-76
2022/09/23 07:49:26;;;;;;;11.05;2.92;;;22.30;99.90;;;;;;5050350;28;20041;-76
2022/09/23 07:51:53;;;;;;;12.10;3.17;;;22.40;99.90;;;;;;5043274;28;20555;-76
2022/09/23 07:54:20;;;;;;;12.77;3.55;;;22.30;99.90;;;;;;5043520;28;20083;-76
2022/09/23 07:56:46;;;;;;;12.77;3.47;;;22.30;99.90;;;;;;5056750;28;20051;-76
2022/09/23 07:59:17;;;;;;;11.43;3.22;;;22.30;99.90;;;;;;5057328;28;20044;-77
2022/09/23 08:01:46;;;;;;;10.98;3.58;;;22.30;99.90;;;;;;5060918;28;20071;-76
2022/09/23 08:04:31;;;;;;;9.55;3.97;;;22.30;99.90;;;;;;5055628;28;20040;-76
2022/09/23 08:07:00;;;;;;;15.23;4.60;;;22.50;99.90;;;;;;5061680;28;20531;-76
2022/09/23 08:09:30;;;;;;;10.55;3.60;;;22.50;99.90;;;;;;5060441;28;20841;-75
2022/09/23 08:11:58;;;;;;;15.10;5.18;;;22.70;99.90;;;;;;5057674;28;20039;-76
2022/09/23 08:14:24;;;;;;;14.10;4.10;;;22.60;99.90;;;;;;5059858;28;20029;-76
2022/09/23 08:16:51;;;;;;;12.88;3.90;;;22.80;99.90;;;;;;5062229;28;20538;-76
2022/09/23 08:19:17;;;;;;;15.00;3.88;;;23.00;99.90;;;;;;5050509;28;20506;-76
2022/09/23 08:21:46;;;;;;;14.75;3.70;;;23.10;99.90;;;;;;5064682;28;20388;-75
2022/09/23 08:24:15;;;;;;;11.20;3.20;;;23.30;99.90;;;;;;5065375;28;20032;-75
2022/09/23 08:26:42;;;;;;;14.35;3.83;;;23.50;99.90;;;;;;5056778;28;20044;-75
2022/09/23 08:29:10;;;;;;;13.10;3.40;;;23.50;99.90;;;;;;5059979;28;20115;-75
2022/09/23 08:31:36;;;;;;;11.60;3.85;;;23.20;99.90;;;;;;5078869;27;20056;-75
2022/09/23 08:34:02;;;;;;;12.13;3.20;;;23.00;99.90;;;;;;5060700;28;20033;-75
2022/09/23 08:36:28;;;;;;;14.85;3.78;;;23.20;99.90;;;;;;5051764;28;20111;-76
2022/09/23 08:38:54;;;;;;;11.52;3.20;;;23.40;99.90;;;;;;5061011;28;20024;-75
2022/09/23 08:41:32;;;;;;;11.30;2.97;;;23.70;99.90;;;;;;5042729;28;20048;-75
2022/09/23 08:44:02;;;;;;;12.60;3.25;;;24.00;99.90;;;;;;5057542;28;20045;-75
2022/09/23 08:46:36;;;;;;;10.48;2.90;;;24.10;99.90;;;;;;5056492;28;20865;-75
2022/09/23 08:49:05;;;;;;;9.82;2.85;;;24.10;99.90;;;;;;5056764;28;20036;-75
2022/09/23 08:51:39;;;;;;;10.20;3.17;;;24.10;99.90;;;;;;5054563;28;20040;-76
2022/09/23 08:54:05;;;;;;;10.73;3.38;;;23.70;99.90;;;;;;5049956;28;20573;-76
2022/09/23 08:56:31;;;;;;;10.25;3.05;;;24.10;99.90;;;;;;5054737;28;20033;-76
2022/09/23 08:59:11;;;;;;;11.63;2.88;;;24.30;99.90;;;;;;5055614;28;20033;-75
2022/09/23 09:01:44;;;;;;;8.05;2.75;;;24.60;99.90;;;;;;5040534;28;20041;-75
2022/09/23 09:04:22;;;;;;;11.07;2.78;;;25.00;99.90;;;;;;5050438;28;20044;-75
2022/09/23 09:07:05;;;;;;;9.60;2.95;;;25.20;99.90;;;;;;5056145;28;20036;-75
2022/09/23 09:09:52;;;;;;;15.38;3.38;;;24.80;99.90;;;;;;5058533;28;20048;-75
2022/09/23 09:12:43;;;;;;;9.93;2.58;;;24.70;99.90;;;;;;5058801;28;20080;-76
2022/09/23 09:15:16;;;;;;;7.68;2.97;;;24.90;99.90;;;;;;5055026;28;20041;-77
2022/09/23 09:18:03;;;;;;;11.95;2.95;;;25.40;99.90;;;;;;5057593;28;20071;-76
2022/09/23 09:20:51;;;;;;;8.82;2.92;;;25.30;99.90;;;;;;5053319;28;20065;-75
2022/09/23 09:23:21;;;;;;;11.40;2.95;;;25.10;99.90;;;;;;5062880;28;20081;-76
2022/09/23 09:25:54;;;;;;;8.10;2.25;;;25.20;99.90;;;;;;5078068;28;20033;-76
2022/09/23 09:29:10;;;;;;;9.05;2.85;;;24.90;99.90;;;;;;5062176;28;20067;-77
2022/09/23 09:31:46;;;;;;;11.35;2.83;;;25.00;99.90;;;;;;5036030;28;20048;-75
2022/09/23 09:34:17;;;;;;;6.90;2.67;;;25.20;99.90;;;;;;5059743;28;20690;-76
2022/09/23 09:37:06;;;;;;;10.32;2.47;;;25.50;99.90;;;;;;5058631;28;20048;-75
2022/09/23 09:39:33;;;;;;;10.02;2.70;;;25.70;99.90;;;;;;5073777;28;20044;-76
2022/09/23 09:41:59;;;;;;;15.35;3.03;;;25.70;99.90;;;;;;5061180;28;20029;-76
2022/09/23 09:44:57;;;;;;;12.18;2.97;;;25.30;99.90;;;;;;5061494;28;20039;-75
2022/09/23 09:47:47;;;;;;;10.23;2.50;;;25.30;99.90;;;;;;5057355;28;20052;-75
2022/09/23 09:50:20;;;;;;;8.48;2.65;;;25.60;99.90;;;;;;5064666;28;20635;-75
2022/09/23 09:52:55;;;;;;;9.32;2.33;;;25.50;99.90;;;;;;5080512;28;20102;-76
2022/09/23 09:55:27;;;;;;;8.63;2.10;;;25.40;99.90;;;;;;5067067;28;20040;-75
2022/09/23 09:58:04;;;;;;;11.63;2.60;;;25.60;99.90;;;;;;5063869;28;20111;-76
2022/09/23 10:00:29;;;;;;;9.35;2.65;;;25.80;99.90;;;;;;5043117;28;20108;-75
2022/09/23 10:03:30;;;;;;;12.82;2.45;;;25.60;99.90;;;;;;5048560;28;20119;-76
2022/09/23 10:05:56;;;;;;;11.98;2.38;;;25.70;99.90;;;;;;5065101;28;20119;-75
2022/09/23 10:08:36;;;;;;;8.60;2.65;;;25.70;99.90;;;;;;5052047;28;20123;-76
2022/09/23 10:11:05;;;;;;;12.20;2.50;;;26.10;99.90;;;;;;5055761;28;20041;-76
2022/09/23 10:13:31;;;;;;;10.50;2.38;;;26.70;99.90;;;;;;5063532;28;20029;-76
2022/09/23 10:16:02;;;;;;;10.75;2.63;;;27.00;99.90;;;;;;5062137;28;20033;-76
2022/09/23 10:18:46;;;;;;;8.20;3.00;;;26.90;99.90;;;;;;5048120;28;20028;-77
2022/09/23 10:21:15;;;;;;;8.13;2.53;;;26.50;99.90;;;;;;5056939;28;20064;-76
2022/09/23 10:23:47;;;;;;;7.47;1.98;;;26.80;99.90;;;;;;5078771;28;20032;-77
2022/09/23 10:26:16;;;;;;;11.60;2.60;;;27.60;99.90;;;;;;5060834;28;20513;-75
2022/09/23 10:28:54;;;;;;;7.38;2.35;;;27.80;99.90;;;;;;5044109;28;20037;-76
2022/09/23 10:31:30;;;;;;;7.50;1.92;;;27.10;99.90;;;;;;5047496;28;20331;-75
2022/09/23 10:34:00;;;;;;;6.25;2.40;;;26.60;99.90;;;;;;5045069;28;20052;-76
2022/09/23 10:36:31;;;;;;;10.40;2.38;;;26.50;99.90;;;;;;5037272;28;20523;-75
2022/09/23 10:48:28;;;;;;;7.35;2.53;;;26.10;99.90;;;;;;5055683;28;20042;-76
2022/09/23 10:50:56;;;;;;;7.75;2.47;;;25.80;99.90;;;;;;5048386;28;20082;-76
2022/09/23 10:53:41;;;;;;;9.50;3.10;;;25.70;99.90;;;;;;5058030;28;21426;-75
2022/09/23 10:56:30;;;;;;;10.55;2.83;;;25.50;99.90;;;;;;5058684;28;20132;-76
2022/09/23 10:59:05;;;;;;;10.80;2.13;;;24.90;99.90;;;;;;5046972;28;20033;-76
2022/09/23 11:01:42;;;;;;;9.23;1.73;;;24.60;99.90;;;;;;5051749;28;20037;-75
2022/09/23 11:04:36;;;;;;;11.52;2.05;;;24.50;99.90;;;;;;5053695;28;20033;-76
2022/09/23 11:07:12;;;;;;;12.90;2.88;;;24.50;99.90;;;;;;5052063;28;20028;-76
2022/09/23 11:10:12;;;;;;;6.10;1.75;;;24.70;99.90;;;;;;5055770;28;20032;-75
2022/09/23 11:13:04;;;;;;;12.88;2.00;;;25.00;99.90;;;;;;5068636;28;20114;-77
2022/09/23 11:15:37;;;;;;;7.32;2.00;;;24.90;99.90;;;;;;5059518;28;20029;-76
2022/09/23 11:18:19;;;;;;;7.63;1.98;;;25.00;99.90;;;;;;5065894;28;20093;-76
2022/09/23 11:20:55;;;;;;;11.00;2.00;;;24.60;99.90;;;;;;5079124;28;20106;-77
2022/09/23 11:23:53;;;;;;;13.05;2.47;;;24.50;99.90;;;;;;5065191;28;20052;-77
2022/09/23 11:27:03;;;;;;;15.13;2.63;;;24.70;99.90;;;;;;5056859;28;20045;-76
2022/09/23 11:29:44;;;;;;;9.07;2.65;;;24.40;99.90;;;;;;5033085;28;20485;-76
2022/09/23 11:32:50;;;;;;;9.05;2.15;;;24.10;99.90;;;;;;5054511;28;20127;-76
2022/09/23 11:35:41;;;;;;;6.97;1.73;;;24.20;99.90;;;;;;5061533;28;20415;-76
2022/09/23 11:38:10;;;;;;;7.68;2.10;;;24.10;99.90;;;;;;5061501;28;20063;-76
2022/09/23 11:40:40;;;;;;;7.15;2.03;;;24.40;99.90;;;;;;5078754;28;20032;-76
2022/09/23 11:43:22;;;;;;;9.57;1.90;;;24.50;99.90;;;;;;5061705;28;20033;-75
2022/09/23 11:46:08;;;;;;;9.07;1.90;;;24.80;99.90;;;;;;5060366;28;20040;-78
2022/09/23 11:49:00;;;;;;;22.05;3.58;;;24.80;99.90;;;;;;5058227;28;20067;-75
2022/09/23 11:51:35;;;;;;;8.18;2.58;;;24.70;99.90;;;;;;5049889;28;20032;-76
2022/09/23 11:54:19;;;;;;;8.35;2.03;;;24.70;99.90;;;;;;5059790;28;20580;-76
2022/09/23 11:56:49;;;;;;;;;;;24.60;99.90;;;;;;5020804;28;20036;-77
2022/09/23 11:59:39;;;;;;;7.80;1.92;;;24.20;99.90;;;;;;5049959;28;19967;-77
2022/09/23 12:02:52;;;;;;;7.32;1.85;;;24.10;99.90;;;;;;5041959;28;20036;-76
2022/09/23 12:05:23;;;;;;;15.43;2.33;;;23.90;99.90;;;;;;5004265;28;20459;-77
2022/09/23 12:07:58;;;;;;;8.70;1.95;;;24.00;99.90;;;;;;5052034;28;20159;-79
2022/09/23 12:10:40;;;;;;;21.63;3.58;;;24.00;99.90;;;;;;5065528;28;20492;-76
2022/09/23 12:13:34;;;;;;;10.60;2.42;;;23.90;99.90;;;;;;5075550;28;20037;-76
2022/09/23 12:16:24;;;;;;;32.55;3.97;;;24.10;99.90;;;;;;5074011;28;20074;-76
2022/09/23 12:19:03;;;;;;;;;;;24.40;99.90;;;;;;5037308;28;20038;-76
2022/09/23 12:21:36;;;;;;;6.10;1.60;;;24.50;99.90;;;;;;5050909;28;19947;-77
2022/09/23 12:24:09;;;;;;;6.20;2.20;;;24.30;99.90;;;;;;5062627;28;20124;-77
2022/09/23 12:26:37;;;;;;;16.77;2.88;;;24.40;99.90;;;;;;5062509;28;20033;-77
2022/09/23 12:29:05;;;;;;;5.70;1.95;;;24.50;99.90;;;;;;5055433;28;20076;-76
2022/09/23 12:31:37;;;;;;;6.53;1.95;;;24.50;99.90;;;;;;5078192;28;20037;-77
2022/09/23 12:34:27;;;;;;;6.70;2.22;;;24.50;99.90;;;;;;5060144;28;20098;-76
2022/09/23 12:37:00;;;;;;;7.57;2.50;;;24.50;99.90;;;;;;5064684;28;20032;-77
2022/09/23 12:39:30;;;;;;;7.97;2.38;;;24.40;99.90;;;;;;5065141;28;20078;-77
2022/09/23 12:42:05;;;;;;;9.65;1.90;;;24.60;99.90;;;;;;5063219;28;20029;-77
2022/09/23 12:44:38;;;;;;;4.80;1.90;;;24.50;99.90;;;;;;5059297;28;21703;-76
2022/09/23 12:47:24;;;;;;;6.28;1.77;;;24.40;99.90;;;;;;5056596;28;20063;-76
2022/09/23 12:49:52;;;;;;;6.45;2.28;;;24.60;99.90;;;;;;5060038;28;20029;-77
2022/09/23 12:52:17;;;;;;;7.50;2.70;;;24.70;99.90;;;;;;5058929;28;20146;-76
2022/09/23 12:54:45;;;;;;;9.70;2.72;;;25.00;99.90;;;;;;5066357;28;20032;-77
2022/09/23 12:57:20;;;;;;;4.97;1.90;;;24.80;99.90;;;;;;5057084;28;20037;-75
2022/09/23 13:00:14;;;;;;;5.63;1.80;;;24.60;99.90;;;;;;5060437;28;20055;-77
2022/09/23 13:02:45;;;;;;;6.15;1.90;;;24.50;99.90;;;;;;5044901;28;20037;-77
2022/09/23 13:08:21;;;;;;;6.55;1.63;;;24.50;99.90;;;;;;5064629;28;20130;-77
2022/09/23 13:10:51;;;;;;;8.70;1.80;;;24.50;99.90;;;;;;5072085;28;20048;-78
2022/09/23 13:13:45;;;;;;;8.18;2.00;;;24.60;99.90;;;;;;5076592;28;20087;-76
2022/09/23 13:16:25;;;;;;;10.27;2.08;;;24.60;99.90;;;;;;5050794;28;20033;-77
2022/09/23 13:18:56;;;;;;;13.85;3.00;;;24.50;99.90;;;;;;5046129;28;20040;-77
2022/09/23 13:21:41;;;;;;;5.45;1.83;;;25.00;99.90;;;;;;5044956;28;20475;-77
2022/09/23 13:24:35;;;;;;;13.00;2.50;;;25.90;99.90;;;;;;5055811;28;20103;-77
2022/09/23 13:27:09;;;;;;;10.80;2.42;;;26.60;99.90;;;;;;5052577;28;20031;-77
2022/09/23 13:29:43;;;;;;;6.95;2.10;;;26.50;99.90;;;;;;5042331;28;20107;-77
2022/09/23 13:32:13;;;;;;;7.25;2.63;;;26.10;99.90;;;;;;5038613;28;20095;-77